Durand, IL

5:08 PM CDT on April 25, 2015 (GMT -0500)
Hawkeye Observatory | | Change Station
CLOSE
Current Station
Personal Weather Station
Location: Durand, IL
Elevation: 758 ft
Nearby Weather Stations

Elev 758 ft 42.44 °N, 89.33 °W | Updated 2 minutes ago

Overcast
Overcast
47.0 °F
Feels Like 40 °F
N
18.0
Wind Variable Wind from ENE
Gusts 18.0 mph

Today
High -- | Low -- °F
--% Chance of Precip.
Yesterday
High -- | Low -- °F
Precip. -- in
6:01 AM 7:50 PM
Waxing Crescent, 49% visible
Pressure 29.76 in
Visibility 10.0 miles
Clouds Overcast 6500 ft
Windchill 40 °F
Dew Point 39 °F
Humidity 73%
Rainfall 0.00 in
Snow Depth Not available.
UV 1 out of 12
Pollen 2.90 out of 12
Air Quality Not available.
Flu Activity Regional
METAR KEFT 252135Z AUTO 04018G25KT 10SM OVC065 08/03 A2976 RMK AO2

More Conditions Fewer Conditions

Pressure 29.76 in
Visibility 10.0 miles
Clouds Overcast 6500 ft
Windchill 40 °F
Dew Point 39 °F
Humidity 73%
Rainfall 0.00 in
Snow Depth Not available.
UV 1 out of 12
Pollen 2.90 out of 12
Air Quality Not available.
Flu Activity Regional
METAR KEFT 252135Z AUTO 04018G25KT 10SM OVC065 08/03 A2976 RMK AO2

More Conditions Fewer Conditions

10-Day Weather Forecast

Almanac

Astronomy

Apr. 25, 2015 Rise Set
Actual Time
Civil Twilight
Nautical Twilight
Astronomical Twilight
Moon
Length of Visible Light
Length of Day
Tomorrow will be .
, % of the Moon is Illuminated

Today's Extremes

State Highs State Lows

Community

WunderPhotos

Upload Photos

1,816,824 photos uploaded!

WunderBlogs® & News

Nearby

Air Quality

  Air Quality AQ Index Pollutant
Not available.

Snow Depth

Station Depth Elevation

Earthquake Activity

City Distance Mag. Time & Date
Minimum magnitude displayed is 2.5.

Coastal Water Temperatures

Place Temperature

Stations

Nearby Weather Stations

Station Location Temp. Windchill Dew Point Humidity Wind Precip. Elev Updated Type